Terminal Aerodrome Forecast
Issued by NWS

Home | Current Version | Previous Version | Text Only | Print | Product List | Glossary On
Versions: 1 2 3 4 5 6 7 8 9 10 11 12 13
426
FTUS42 KTBW 272338
TAFLAL
TAF
KLAL 272338Z 2800/2824 31006KT P6SM FEW250
     FM280200 VRB03KT P6SM FEW250
     FM280900 VRB03KT 6SM BR FEW250
     FM281400 31007KT P6SM SCT250
     FM281800 29010KT P6SM SCT040 SCT250
      AMD NOT SKED 2802/2811=

USA.gov is the U.S. government's official web portal to all federal, state and local government web resources and services.